CheckWX is a tool to help pilots better visualize weather data.  It is not intended as a substitute for an official pre-flight weather briefing.

15:44:54 UTC

KPPO METAR
La Porte Municipal Airport
La Porte, Indiana, USA
Current

30 mins ago

KPPO 051515Z AUTO 36009KT 10SM SCT120 06/M01 A3020 RMK AO2 T00641011
Observed
Apr-5 @ 15:15 UTC
Wind
  • 360° at 9 KTS
Visibility
Flight Rules
VFR
Cloud Levels
  • Scattered at 12,000' AGL
Temperature
C / 43°F
Dewpoint
-1°C / 30°F
Humidity
61%
Altimeter
30.2" Hg
Pressure
1022.72 hPa
Previous

50 mins ago

KPPO 051455Z AUTO 01007KT 10SM SCT120 06/M01 A3021 RMK AO2 T00581006
Observed
Apr-5 @ 14:55 UTC
Wind
  • 010° at 7 KTS
Visibility
Flight Rules
VFR
Cloud Levels
  • Scattered at 12,000' AGL
Temperature
C / 43°F
Dewpoint
-1°C / 30°F
Humidity
61%
Altimeter
30.21" Hg
Pressure
1023.02 hPa
Previous

1 hour ago

KPPO 051435Z AUTO 03007KT 10SM BKN120 05/00 A3020 RMK AO2 T00491005
Observed
Apr-5 @ 14:35 UTC
Wind
  • 030° at 7 KTS
Visibility
Flight Rules
VFR
Cloud Levels
  • Broken at 12,000' AGL
Temperature
C / 41°F
Dewpoint
C / 32°F
Humidity
70%
Altimeter
30.2" Hg
Pressure
1022.72 hPa